createdAt,value
2023-02-18T00:04:33.857Z,9.14
2023-02-18T00:09:39.321Z,9.56
2023-02-18T00:14:42.632Z,9.78
2023-02-18T00:19:45.857Z,8.69
2023-02-18T00:24:49.333Z,9.37
2023-02-18T00:29:52.557Z,8.68
2023-02-18T00:34:55.868Z,8.28
2023-02-18T00:39:59.490Z,8.98
2023-02-18T00:45:03.450Z,7.89
2023-02-18T00:50:08.673Z,7.46
2023-02-18T00:55:11.985Z,7.27
2023-02-18T01:00:16.206Z,8.16
2023-02-18T01:05:19.734Z,8.10
2023-02-18T01:10:23.055Z,7.50
2023-02-18T01:15:26.477Z,7.25
2023-02-18T01:20:29.980Z,7.13
2023-02-18T01:25:34.473Z,7.11
2023-02-18T01:30:37.722Z,7.05
2023-02-18T01:35:41.359Z,7.93
2023-02-18T01:40:52.410Z,7.89
2023-02-18T01:46:15.340Z,7.31
2023-02-18T01:51:32.441Z,7.03
2023-02-18T01:56:57.971Z,7.18
2023-02-18T02:02:01.526Z,8.15
2023-02-18T02:07:05.517Z,7.48
2023-02-18T02:12:34.525Z,7.08
2023-02-18T02:18:12.513Z,6.91
2023-02-18T02:23:54.085Z,6.86
2023-02-18T02:29:15.831Z,6.81
2023-02-18T02:34:31.188Z,6.81
2023-02-18T02:40:12.299Z,6.82
2023-02-18T02:46:01.535Z,6.81
2023-02-18T02:51:13.392Z,6.83
2023-02-18T02:56:26.583Z,6.80
2023-02-18T03:01:58.412Z,6.77
2023-02-18T03:07:43.562Z,6.73
2023-02-18T03:13:05.155Z,6.70
2023-02-18T03:18:17.689Z,6.70
2023-02-18T03:23:30.507Z,6.71
2023-02-18T03:28:35.258Z,6.69
2023-02-18T03:33:46.753Z,6.64
2023-02-18T03:39:03.382Z,6.60
2023-02-18T03:44:10.081Z,6.62
2023-02-18T03:49:15.663Z,6.63
2023-02-18T03:54:18.850Z,6.60
2023-02-18T03:59:22.170Z,6.58
2023-02-18T04:04:25.387Z,6.59
2023-02-18T04:09:28.671Z,6.56
2023-02-18T04:14:32.800Z,6.52
2023-02-18T04:19:36.360Z,6.52
2023-02-18T04:24:39.634Z,6.49
2023-02-18T04:29:43.037Z,6.47
2023-02-18T04:34:46.134Z,6.41
2023-02-18T04:39:49.858Z,6.36
2023-02-18T04:44:52.896Z,6.33
2023-02-18T04:49:55.988Z,6.31
2023-02-18T04:54:59.914Z,6.28
2023-02-18T05:00:07.062Z,6.23
2023-02-18T05:05:10.957Z,6.20
2023-02-18T05:10:18.636Z,6.20
2023-02-18T05:15:21.760Z,6.19
2023-02-18T05:20:24.871Z,6.28
2023-02-18T05:25:28.405Z,8.02
2023-02-18T05:30:31.666Z,7.95
2023-02-18T05:35:35.105Z,6.77
2023-02-18T05:40:39.343Z,6.27
2023-02-18T05:45:42.641Z,6.04
2023-02-18T05:50:45.749Z,5.98
2023-02-18T05:55:48.861Z,6.90
2023-02-18T06:00:52.095Z,6.87
2023-02-18T06:05:55.270Z,6.34
2023-02-18T06:10:58.901Z,6.13
2023-02-18T06:16:02.246Z,6.02
2023-02-18T06:21:06.136Z,5.99
2023-02-18T06:26:10.169Z,5.98
2023-02-18T06:31:14.704Z,5.95
2023-02-18T06:36:18.105Z,5.93
2023-02-18T06:41:21.434Z,5.91
2023-02-18T06:46:24.957Z,5.88
2023-02-18T06:51:28.138Z,5.91
2023-02-18T06:56:31.565Z,5.89
2023-02-18T07:01:34.767Z,5.89
2023-02-18T07:06:37.966Z,6.68
2023-02-18T07:11:41.291Z,7.10
2023-02-18T07:16:44.777Z,6.45
2023-02-18T07:21:48.014Z,6.20
2023-02-18T07:26:51.214Z,6.10
2023-02-18T07:31:54.918Z,6.05
2023-02-18T07:36:58.298Z,6.03
2023-02-18T07:42:03.918Z,6.04
2023-02-18T07:47:10.845Z,6.08
2023-02-18T07:52:16.211Z,6.12
2023-02-18T07:57:19.486Z,6.15
2023-02-18T08:02:25.022Z,6.19
2023-02-18T08:07:28.252Z,6.19
2023-02-18T08:12:31.267Z,6.22
2023-02-18T08:17:34.513Z,6.25
2023-02-18T08:22:38.714Z,6.30
2023-02-18T08:27:41.819Z,6.34
2023-02-18T08:32:45.015Z,6.34
2023-02-18T08:37:52.998Z,6.33
2023-02-18T08:42:56.756Z,6.34
2023-02-18T08:48:17.011Z,6.35
2023-02-18T08:53:23.872Z,6.38
2023-02-18T08:58:27.172Z,6.41
2023-02-18T09:03:31.304Z,6.42
2023-02-18T09:08:34.632Z,6.48
2023-02-18T09:13:38.660Z,6.54
2023-02-18T09:18:42.360Z,6.55
2023-02-18T09:23:45.465Z,6.60
2023-02-18T09:28:50.419Z,6.74
2023-02-18T09:34:02.161Z,6.73
2023-02-18T09:39:07.106Z,6.78
2023-02-18T09:44:53.187Z,6.77
2023-02-18T09:50:06.636Z,6.81
2023-02-18T09:55:36.673Z,6.90
2023-02-18T10:00:44.483Z,6.92
2023-02-18T10:06:16.984Z,6.88
2023-02-18T10:11:32.414Z,6.82
2023-02-18T10:16:35.705Z,6.79
2023-02-18T10:21:39.521Z,6.80
2023-02-18T10:26:44.148Z,6.78
2023-02-18T10:32:06.640Z,6.76
2023-02-18T10:37:47.019Z,6.78
2023-02-18T10:43:17.674Z,6.80
2023-02-18T10:49:12.064Z,6.82
2023-02-18T10:54:16.242Z,6.88
2023-02-18T10:59:27.808Z,6.93
2023-02-18T11:04:44.363Z,6.98
2023-02-18T11:09:56.229Z,6.92
2023-02-18T11:15:15.097Z,6.82
2023-02-18T11:20:34.266Z,6.73
2023-02-18T11:25:42.547Z,6.73
2023-02-18T11:30:54.432Z,6.75
2023-02-18T11:36:03.334Z,6.81
2023-02-18T11:41:15.369Z,6.87
2023-02-18T11:46:23.486Z,6.91
2023-02-18T11:51:38.999Z,6.93
2023-02-18T11:56:56.171Z,7.06
2023-02-18T12:02:11.576Z,7.21
2023-02-18T12:08:04.002Z,7.37
2023-02-18T12:13:26.612Z,7.37
2023-02-18T12:19:03.462Z,7.24
2023-02-18T12:24:40.465Z,7.08
2023-02-18T12:30:21.176Z,6.95
2023-02-18T12:35:56.821Z,6.94
2023-02-18T12:41:47.157Z,6.90
2023-02-18T12:47:19.158Z,6.91
2023-02-18T12:52:56.069Z,6.97
2023-02-18T12:58:44.171Z,6.97
2023-02-18T13:04:12.089Z,6.91
2023-02-18T13:10:08.225Z,6.87
2023-02-18T13:15:28.624Z,6.89
2023-02-18T13:20:52.210Z,6.93
2023-02-18T13:26:02.350Z,6.99
2023-02-18T13:31:34.419Z,6.94
2023-02-18T13:37:13.103Z,6.94
2023-02-18T13:42:31.893Z,6.98
2023-02-18T13:47:46.742Z,6.96
2023-02-18T13:52:52.910Z,6.96
2023-02-18T13:57:56.150Z,6.96
2023-02-18T14:03:30.921Z,6.97
2023-02-18T14:08:37.485Z,6.98
2023-02-18T14:13:42.223Z,6.97
2023-02-18T14:18:45.232Z,6.95
2023-02-18T14:23:57.664Z,6.96
2023-02-18T14:29:08.274Z,6.92
2023-02-18T14:34:34.491Z,6.89
2023-02-18T14:40:00.859Z,6.83
2023-02-18T14:45:49.319Z,6.81
2023-02-18T14:50:54.251Z,6.73
2023-02-18T14:56:06.087Z,6.71
2023-02-18T15:01:29.475Z,6.66
2023-02-18T15:06:39.927Z,6.64
2023-02-18T15:11:56.758Z,6.59
2023-02-18T15:17:02.019Z,6.54
2023-02-18T15:22:05.231Z,6.51
2023-02-18T15:27:28.919Z,6.47
2023-02-18T15:32:33.498Z,6.41
2023-02-18T15:37:36.663Z,6.37
2023-02-18T15:42:39.865Z,6.33
2023-02-18T15:47:53.415Z,6.28
2023-02-18T15:53:04.921Z,6.24
2023-02-18T15:58:14.841Z,6.20
2023-02-18T16:03:41.649Z,6.15
2023-02-18T16:09:14.045Z,6.11
2023-02-18T16:14:30.677Z,6.06
2023-02-18T16:19:40.012Z,6.04
2023-02-18T16:24:43.127Z,5.98
2023-02-18T16:29:46.276Z,5.92
2023-02-18T16:34:49.746Z,5.85
2023-02-18T16:39:55.404Z,5.81
2023-02-18T16:44:58.415Z,6.39
2023-02-18T16:50:01.930Z,8.52
2023-02-18T16:55:18.198Z,7.74
2023-02-18T17:00:22.967Z,6.70
2023-02-18T17:05:31.438Z,6.27
2023-02-18T17:11:33.303Z,6.02
2023-02-18T17:16:36.465Z,6.83
2023-02-18T17:21:40.657Z,8.77
2023-02-18T17:26:45.266Z,7.78
2023-02-18T17:31:55.177Z,6.80
2023-02-18T17:36:59.301Z,7.38
2023-02-18T17:42:02.394Z,8.58
2023-02-18T17:47:05.814Z,7.35
2023-02-18T17:52:30.964Z,6.57
2023-02-18T17:57:34.233Z,8.00
2023-02-18T18:02:37.471Z,8.22
2023-02-18T18:07:40.753Z,6.86
2023-02-18T18:12:43.978Z,7.31
2023-02-18T18:17:47.690Z,8.22
2023-02-18T18:22:53.928Z,6.87
2023-02-18T18:27:57.921Z,7.25
2023-02-18T18:33:02.637Z,8.16
2023-02-18T18:38:05.848Z,6.80
2023-02-18T18:43:19.826Z,7.79
2023-02-18T18:48:24.650Z,7.13
2023-02-18T18:53:33.462Z,6.57
2023-02-18T18:58:36.550Z,7.88
2023-02-18T19:03:41.758Z,6.82
2023-02-18T19:08:46.692Z,6.68
2023-02-18T19:13:49.809Z,7.91
2023-02-18T19:18:54.450Z,6.71
2023-02-18T19:23:57.571Z,6.90
2023-02-18T19:29:00.867Z,7.42
2023-02-18T19:34:03.979Z,6.32
2023-02-18T19:39:07.593Z,7.47
2023-02-18T19:44:10.706Z,7.30
2023-02-18T19:49:13.916Z,6.04
2023-02-18T19:54:17.122Z,7.31
2023-02-18T19:59:20.330Z,8.06
2023-02-18T20:04:26.408Z,6.49
2023-02-18T20:09:29.621Z,6.75
2023-02-18T20:14:33.465Z,8.10
2023-02-18T20:19:36.953Z,7.28
2023-02-18T20:24:40.802Z,5.82
2023-02-18T20:29:43.886Z,6.49
2023-02-18T20:34:47.324Z,7.82
2023-02-18T20:39:50.505Z,7.69
2023-02-18T20:44:53.825Z,6.32
2023-02-18T20:49:57.141Z,7.46
2023-02-18T20:55:00.336Z,8.34
2023-02-18T21:00:05.462Z,7.58
2023-02-18T21:05:08.906Z,6.76
2023-02-18T21:10:12.142Z,8.18
2023-02-18T21:15:15.950Z,7.46
2023-02-18T21:20:19.349Z,6.45
2023-02-18T21:25:22.447Z,7.90
2023-02-18T21:30:25.689Z,8.25
2023-02-18T21:35:29.072Z,6.56
2023-02-18T21:40:33.276Z,5.63
2023-02-18T21:45:37.365Z,7.20
2023-02-18T21:50:40.551Z,7.94
2023-02-18T21:55:49.840Z,6.23
2023-02-18T22:00:58.737Z,5.97
2023-02-18T22:06:02.067Z,7.68
2023-02-18T22:11:06.722Z,7.64
2023-02-18T22:16:10.341Z,6.17
2023-02-18T22:21:13.835Z,7.35
2023-02-18T22:26:17.151Z,8.26
2023-02-18T22:31:22.560Z,6.80
2023-02-18T22:36:28.034Z,5.86
2023-02-18T22:41:33.104Z,7.12
2023-02-18T22:46:37.900Z,8.01
2023-02-18T22:51:44.589Z,6.94
2023-02-18T22:56:48.779Z,6.02
2023-02-18T23:01:53.238Z,7.19
2023-02-18T23:06:57.067Z,7.82
2023-02-18T23:12:00.448Z,6.26
2023-02-18T23:17:13.713Z,6.73
2023-02-18T23:22:25.399Z,7.57
2023-02-18T23:27:29.335Z,7.27
2023-02-18T23:32:32.440Z,6.24
2023-02-18T23:37:54.179Z,7.45
2023-02-18T23:42:57.495Z,7.57
2023-02-18T23:48:00.709Z,5.87
2023-02-18T23:53:03.802Z,7.09
2023-02-18T23:58:06.909Z,7.80
